createdAt,value
2018-04-27T00:01:54.996Z,5.93
2018-04-27T00:04:21.573Z,5.93
2018-04-27T00:06:48.106Z,5.13
2018-04-27T00:09:15.404Z,5.30
2018-04-27T00:11:42.663Z,5.83
2018-04-27T00:14:09.211Z,6.10
2018-04-27T00:16:35.752Z,6.27
2018-04-27T00:19:02.298Z,6.27
2018-04-27T00:21:28.802Z,7.17
2018-04-27T00:23:56.091Z,7.50
2018-04-27T00:26:22.673Z,6.60
2018-04-27T00:28:50.014Z,6.43
2018-04-27T00:31:16.561Z,5.83
2018-04-27T00:33:43.875Z,6.33
2018-04-27T00:36:10.448Z,5.83
2018-04-27T00:38:37.008Z,5.97
2018-04-27T00:41:03.580Z,6.00
2018-04-27T00:43:30.104Z,5.80
2018-04-27T00:45:56.661Z,6.00
2018-04-27T00:48:23.242Z,5.87
2018-04-27T00:50:50.535Z,6.40
2018-04-27T00:53:17.133Z,6.43
2018-04-27T00:55:43.731Z,5.80
2018-04-27T00:58:10.297Z,5.33
2018-04-27T01:00:36.877Z,5.80
2018-04-27T01:03:03.486Z,6.17
2018-04-27T01:05:30.815Z,6.17
2018-04-27T01:07:57.382Z,5.77
2018-04-27T01:10:24.726Z,6.00
2018-04-27T01:12:51.271Z,6.00
2018-04-27T01:15:18.546Z,6.33
2018-04-27T01:17:45.105Z,6.00
2018-04-27T01:20:11.684Z,6.53
2018-04-27T01:22:38.935Z,6.33
2018-04-27T01:25:05.521Z,6.07
2018-04-27T01:27:32.062Z,5.83
2018-04-27T01:29:58.613Z,5.37
2018-04-27T01:32:25.218Z,5.80
2018-04-27T01:34:51.769Z,6.23
2018-04-27T01:37:18.327Z,6.13
2018-04-27T01:39:44.866Z,6.00
2018-04-27T01:42:12.152Z,5.93
2018-04-27T01:44:39.436Z,6.13
2018-04-27T01:47:05.973Z,6.80
2018-04-27T01:49:32.496Z,6.17
2018-04-27T01:51:59.034Z,6.37
2018-04-27T01:54:25.625Z,6.17
2018-04-27T01:56:52.214Z,6.37
2018-04-27T01:59:18.772Z,5.87
2018-04-27T02:01:45.353Z,6.83
2018-04-27T02:04:11.905Z,7.00
2018-04-27T02:06:39.176Z,7.53
2018-04-27T02:09:05.767Z,7.13
2018-04-27T02:11:32.313Z,7.10
2018-04-27T02:13:58.841Z,7.80
2018-04-27T02:16:26.115Z,9.00
2018-04-27T02:18:53.407Z,7.77
2018-04-27T02:21:20.115Z,8.87
2018-04-27T02:23:47.411Z,9.93
2018-04-27T02:26:14.031Z,10.43
2018-04-27T02:28:40.592Z,10.80
2018-04-27T02:31:07.200Z,9.93
2018-04-27T02:33:33.798Z,9.20
2018-04-27T02:36:00.341Z,10.30
2018-04-27T02:38:26.984Z,9.97
2018-04-27T02:40:54.246Z,9.97
2018-04-27T02:43:21.507Z,10.80
2018-04-27T02:45:48.073Z,10.50
2018-04-27T02:48:14.630Z,10.10
2018-04-27T02:50:41.168Z,10.53
2018-04-27T02:53:07.702Z,10.77
2018-04-27T02:55:34.208Z,10.13
2018-04-27T02:58:00.786Z,10.03
2018-04-27T03:00:27.321Z,9.77
2018-04-27T03:02:53.875Z,9.77
2018-04-27T03:05:20.420Z,10.10
2018-04-27T03:07:47.703Z,10.30
2018-04-27T03:10:14.247Z,9.53
2018-04-27T03:12:40.806Z,10.03
2018-04-27T03:15:07.383Z,10.40
2018-04-27T03:17:33.930Z,10.17
2018-04-27T03:20:01.192Z,10.53
2018-04-27T03:22:27.728Z,11.03
2018-04-27T03:24:54.261Z,10.43
2018-04-27T03:27:20.799Z,10.57
2018-04-27T03:29:47.373Z,11.03
2018-04-27T03:32:13.908Z,10.10
2018-04-27T03:34:40.439Z,10.30
2018-04-27T03:37:07.026Z,11.90
2018-04-27T03:39:34.291Z,11.30
2018-04-27T03:42:01.653Z,10.80
2018-04-27T03:44:28.197Z,11.00
2018-04-27T03:46:54.742Z,10.37
2018-04-27T03:49:21.326Z,10.20
2018-04-27T03:51:47.960Z,10.27
2018-04-27T03:54:14.432Z,10.03
2018-04-27T03:56:40.983Z,11.67
2018-04-27T03:59:07.607Z,11.80
2018-04-27T04:01:46.292Z,11.50
2018-04-27T04:07:18.448Z,10.90
2018-04-27T04:09:45.729Z,10.73
2018-04-27T04:12:12.288Z,10.60
2018-04-27T04:14:39.553Z,10.90
2018-04-27T04:17:06.197Z,10.40
2018-04-27T04:19:32.758Z,10.10
2018-04-27T04:21:59.388Z,10.13
2018-04-27T04:24:25.955Z,10.90
2018-04-27T04:26:52.549Z,10.33
2018-04-27T04:29:19.115Z,10.53
2018-04-27T04:31:45.709Z,11.30
2018-04-27T04:34:12.273Z,10.47
2018-04-27T04:36:38.824Z,10.17
2018-04-27T04:39:05.435Z,10.70
2018-04-27T04:41:32.048Z,10.47
2018-04-27T04:43:58.633Z,10.60
2018-04-27T04:46:25.195Z,10.83
2018-04-27T04:48:51.792Z,9.90
2018-04-27T04:51:18.371Z,10.50
2018-04-27T04:53:44.941Z,10.17
2018-04-27T04:56:12.368Z,10.30
2018-04-27T04:58:38.966Z,10.30
2018-04-27T05:01:05.660Z,9.87
2018-04-27T05:03:32.264Z,11.47
2018-04-27T05:05:58.839Z,10.00
2018-04-27T05:08:25.391Z,10.23
2018-04-27T05:10:52.706Z,10.17
2018-04-27T05:13:19.252Z,10.57
2018-04-27T05:15:45.811Z,9.37
2018-04-27T05:18:14.156Z,10.50
2018-04-27T05:20:40.782Z,9.87
2018-04-27T05:23:07.323Z,8.83
2018-04-27T05:25:33.921Z,9.33
2018-04-27T05:28:00.506Z,9.60
2018-04-27T05:30:27.935Z,9.00
2018-04-27T05:33:03.254Z,9.10
2018-04-27T05:35:29.898Z,8.43
2018-04-27T05:37:56.443Z,9.27
2018-04-27T05:40:23.139Z,9.17
2018-04-27T05:42:50.501Z,8.77
2018-04-27T05:45:17.135Z,9.20
2018-04-27T05:47:43.844Z,9.53
2018-04-27T05:50:10.509Z,9.37
2018-04-27T05:52:37.102Z,9.97
2018-04-27T05:55:03.728Z,9.83
2018-04-27T05:57:30.328Z,10.50
2018-04-27T05:59:56.977Z,8.80
2018-04-27T06:02:24.265Z,9.30
2018-04-27T06:04:50.779Z,8.50
2018-04-27T06:07:17.376Z,9.87
2018-04-27T06:09:44.700Z,8.83
2018-04-27T06:12:11.253Z,9.13
2018-04-27T06:14:37.835Z,9.60
2018-04-27T06:17:04.421Z,9.30
2018-04-27T06:19:31.619Z,9.80
2018-04-27T06:21:58.961Z,9.27
2018-04-27T06:24:25.568Z,9.47
2018-04-27T06:26:52.152Z,9.63
2018-04-27T06:29:18.727Z,9.47
2018-04-27T06:31:45.357Z,9.00
2018-04-27T06:34:11.956Z,8.10
2018-04-27T06:36:38.631Z,8.60
2018-04-27T06:39:05.252Z,8.37
2018-04-27T06:41:31.816Z,10.00
2018-04-27T06:43:58.483Z,9.27
2018-04-27T06:46:25.191Z,9.00
2018-04-27T06:48:51.774Z,10.07
2018-04-27T06:51:18.455Z,9.63
2018-04-27T06:53:45.087Z,9.47
2018-04-27T06:56:11.723Z,10.90
2018-04-27T06:58:38.300Z,11.57
2018-04-27T07:01:05.065Z,10.70
2018-04-27T07:03:31.713Z,10.23
2018-04-27T07:05:59.107Z,10.40
2018-04-27T07:08:25.799Z,11.07
2018-04-27T07:10:53.349Z,10.77
2018-04-27T07:13:19.995Z,11.27
2018-04-27T07:15:46.634Z,11.07
2018-04-27T07:18:13.170Z,11.27
2018-04-27T07:20:39.713Z,11.53
2018-04-27T07:23:06.303Z,12.10
2018-04-27T07:25:32.882Z,12.53
2018-04-27T07:27:59.452Z,11.27
2018-04-27T07:30:25.998Z,11.10
2018-04-27T07:32:52.626Z,12.13
2018-04-27T07:35:19.221Z,12.03
2018-04-27T07:37:45.855Z,12.37
2018-04-27T07:40:12.428Z,11.73
2018-04-27T07:42:39.001Z,11.70
2018-04-27T07:45:05.585Z,12.10
2018-04-27T07:47:32.175Z,11.53
2018-04-27T07:49:58.779Z,11.17
2018-04-27T07:52:25.467Z,12.53
2018-04-27T07:54:52.094Z,11.67
2018-04-27T07:57:18.756Z,11.60
2018-04-27T07:59:45.458Z,11.77
2018-04-27T08:02:12.140Z,11.77
2018-04-27T08:04:38.803Z,11.90
2018-04-27T08:07:06.175Z,10.83
2018-04-27T08:09:32.782Z,10.63
2018-04-27T08:11:59.436Z,11.47
2018-04-27T08:14:26.092Z,11.23
2018-04-27T08:16:52.742Z,13.63
2018-04-27T08:19:19.408Z,13.80
2018-04-27T08:21:46.053Z,13.47
2018-04-27T08:24:12.670Z,13.50
2018-04-27T08:26:39.374Z,13.47
2018-04-27T08:29:05.927Z,12.80
2018-04-27T08:31:32.605Z,13.20
2018-04-27T08:33:59.224Z,12.60
2018-04-27T08:36:25.980Z,12.87
2018-04-27T08:38:52.570Z,11.77
2018-04-27T08:41:19.143Z,12.00
2018-04-27T08:43:45.846Z,11.70
2018-04-27T08:46:12.399Z,11.83
2018-04-27T08:48:38.952Z,11.20
2018-04-27T08:51:05.573Z,11.47
2018-04-27T08:53:32.217Z,9.83
2018-04-27T08:55:58.841Z,11.37
2018-04-27T08:58:25.540Z,10.90
2018-04-27T09:00:52.148Z,9.67
2018-04-27T09:03:18.714Z,10.23
2018-04-27T09:05:45.410Z,9.33
2018-04-27T09:08:12.066Z,9.23
2018-04-27T09:10:38.640Z,7.93
2018-04-27T09:13:05.275Z,7.30
2018-04-27T09:15:31.934Z,6.50
2018-04-27T09:17:59.233Z,5.00
2018-04-27T09:20:25.768Z,5.00
2018-04-27T09:22:52.345Z,4.70
2018-04-27T09:25:18.948Z,5.20
2018-04-27T09:27:45.609Z,4.50
2018-04-27T09:30:12.197Z,4.63
2018-04-27T09:32:38.731Z,4.70
2018-04-27T09:35:05.347Z,5.30
2018-04-27T09:37:32.742Z,3.87
2018-04-27T09:39:59.262Z,3.63
2018-04-27T09:42:25.908Z,3.50
2018-04-27T09:44:52.516Z,3.20
2018-04-27T09:47:19.881Z,3.03
2018-04-27T09:49:46.485Z,3.53
2018-04-27T09:52:13.121Z,3.40
2018-04-27T09:54:39.676Z,3.37
2018-04-27T09:57:06.279Z,2.73
2018-04-27T09:59:32.921Z,2.67
2018-04-27T10:02:00.258Z,3.00
2018-04-27T10:04:26.876Z,3.17
2018-04-27T10:06:53.498Z,3.50
2018-04-27T10:09:20.123Z,3.63
2018-04-27T10:11:47.494Z,3.40
2018-04-27T10:14:14.075Z,3.43
2018-04-27T10:16:40.638Z,3.33
2018-04-27T10:19:07.180Z,3.30
2018-04-27T10:21:33.791Z,2.90
2018-04-27T10:24:00.398Z,3.13
2018-04-27T10:26:27.094Z,3.93
2018-04-27T10:28:53.705Z,3.30
2018-04-27T10:31:20.279Z,2.83
2018-04-27T10:33:47.608Z,3.20
2018-04-27T10:36:14.302Z,3.40
2018-04-27T10:38:40.974Z,2.97
2018-04-27T10:41:08.301Z,2.80
2018-04-27T10:43:34.876Z,2.97
2018-04-27T10:46:01.468Z,3.40
2018-04-27T10:48:28.093Z,3.10
2018-04-27T10:50:54.693Z,3.13
2018-04-27T10:53:21.324Z,3.13
2018-04-27T10:55:47.960Z,3.13
2018-04-27T10:58:14.587Z,3.17
2018-04-27T11:00:41.227Z,3.50
2018-04-27T11:03:07.881Z,2.77
2018-04-27T11:05:34.526Z,2.73
2018-04-27T11:08:01.253Z,3.27
2018-04-27T11:10:27.876Z,2.80
2018-04-27T11:12:54.689Z,3.17
2018-04-27T11:15:21.373Z,3.60
2018-04-27T11:17:47.979Z,3.13
2018-04-27T11:20:15.400Z,3.60
2018-04-27T11:22:42.081Z,2.63
2018-04-27T11:25:08.680Z,2.90
2018-04-27T11:27:35.368Z,3.00
2018-04-27T11:30:01.943Z,3.30
2018-04-27T11:32:28.512Z,3.40
2018-04-27T11:34:55.042Z,3.17
2018-04-27T11:37:21.699Z,3.40
2018-04-27T11:39:48.276Z,3.33
2018-04-27T11:42:14.863Z,3.07
2018-04-27T11:44:41.412Z,2.73
2018-04-27T11:47:08.063Z,2.83
2018-04-27T11:49:34.701Z,2.80
2018-04-27T11:52:01.321Z,2.90
2018-04-27T11:54:28.714Z,3.23
2018-04-27T11:56:55.365Z,2.70
2018-04-27T11:59:22.022Z,3.17
2018-04-27T12:01:49.504Z,3.33
2018-04-27T12:04:16.142Z,3.40
2018-04-27T12:06:42.800Z,3.37
2018-04-27T12:09:09.439Z,2.90
2018-04-27T12:11:36.059Z,3.10
2018-04-27T12:14:02.694Z,3.30
2018-04-27T12:16:29.353Z,3.00
2018-04-27T12:18:56.132Z,3.00
2018-04-27T12:21:22.734Z,2.87
2018-04-27T12:23:49.348Z,2.70
2018-04-27T12:26:15.952Z,3.37
2018-04-27T12:28:42.475Z,3.23
2018-04-27T12:31:09.140Z,3.07
2018-04-27T12:33:35.666Z,2.77
2018-04-27T12:36:02.321Z,2.80
2018-04-27T12:38:29.732Z,2.60
2018-04-27T12:40:56.394Z,3.40
2018-04-27T12:43:23.023Z,2.80
2018-04-27T12:45:49.633Z,3.00
2018-04-27T12:48:16.965Z,3.27
2018-04-27T12:50:43.631Z,3.50
2018-04-27T12:53:10.436Z,3.03
2018-04-27T12:55:37.092Z,3.60
2018-04-27T12:58:03.757Z,3.17
2018-04-27T13:00:30.390Z,3.20
2018-04-27T13:02:56.953Z,3.80
2018-04-27T13:05:23.636Z,3.87
2018-04-27T13:07:50.717Z,3.17
2018-04-27T13:10:17.408Z,3.67
2018-04-27T13:12:44.755Z,2.90
2018-04-27T13:15:12.173Z,3.47
2018-04-27T13:17:38.851Z,3.40
2018-04-27T13:20:06.213Z,3.27
2018-04-27T13:22:33.538Z,3.10
2018-04-27T13:25:00.113Z,2.90
2018-04-27T13:27:27.438Z,2.80
2018-04-27T13:29:54.021Z,2.57
2018-04-27T13:32:20.598Z,3.23
2018-04-27T13:34:47.247Z,3.57
2018-04-27T13:37:14.075Z,3.40
2018-04-27T13:39:59.777Z,3.23
2018-04-27T13:42:26.381Z,3.03
2018-04-27T13:44:52.994Z,3.13
2018-04-27T13:47:19.606Z,3.20
2018-04-27T13:49:47.025Z,2.83
2018-04-27T13:52:13.790Z,2.93
2018-04-27T13:54:40.546Z,3.93
2018-04-27T13:57:08.029Z,3.20
2018-04-27T13:59:34.756Z,3.20
2018-04-27T14:02:01.419Z,4.10
2018-04-27T14:04:28.079Z,3.20
2018-04-27T14:06:54.696Z,3.23
2018-04-27T14:09:21.364Z,2.60
2018-04-27T14:11:48.037Z,3.30
2018-04-27T14:14:15.412Z,3.40
2018-04-27T14:16:42.077Z,2.80
2018-04-27T14:19:08.696Z,3.33
2018-04-27T14:21:35.311Z,3.37
2018-04-27T14:24:02.768Z,2.63
2018-04-27T14:26:30.145Z,3.40
2018-04-27T14:28:56.748Z,2.87
2018-04-27T14:31:23.286Z,3.10
2018-04-27T14:33:49.876Z,3.33
2018-04-27T14:36:16.434Z,3.10
2018-04-27T14:38:43.004Z,3.30
2018-04-27T14:41:10.497Z,3.00
2018-04-27T14:43:37.047Z,2.97
2018-04-27T14:46:03.684Z,2.87
2018-04-27T14:48:30.491Z,3.10
2018-04-27T14:50:57.911Z,3.17
2018-04-27T14:53:24.594Z,2.93
2018-04-27T14:55:51.188Z,2.73
2018-04-27T14:58:17.881Z,3.33
2018-04-27T15:00:44.525Z,2.50
2018-04-27T15:03:11.248Z,3.13
2018-04-27T15:05:37.845Z,3.10
2018-04-27T15:08:04.429Z,3.00
2018-04-27T15:10:31.145Z,2.90
2018-04-27T15:12:57.782Z,3.50
2018-04-27T15:15:24.408Z,3.87
2018-04-27T15:17:50.997Z,3.07
2018-04-27T15:20:17.556Z,3.33
2018-04-27T15:22:44.105Z,2.83
2018-04-27T15:25:10.655Z,3.50
2018-04-27T15:27:37.284Z,2.83
2018-04-27T15:30:03.910Z,3.40
2018-04-27T15:32:30.609Z,3.00
2018-04-27T15:34:57.306Z,3.17
2018-04-27T15:37:23.942Z,3.03
2018-04-27T15:39:50.648Z,2.80
2018-04-27T15:42:17.344Z,2.90
2018-04-27T15:44:44.047Z,3.50
2018-04-27T15:47:10.679Z,3.87
2018-04-27T15:49:37.529Z,3.83
2018-04-27T15:52:04.222Z,3.63
2018-04-27T15:54:31.731Z,3.10
2018-04-27T15:56:58.269Z,3.00
2018-04-27T15:59:24.814Z,3.47
2018-04-27T16:01:51.822Z,3.07
2018-04-27T16:04:18.448Z,3.57
2018-04-27T16:06:45.048Z,2.90
2018-04-27T16:09:11.854Z,3.00
2018-04-27T16:11:39.164Z,3.40
2018-04-27T16:14:06.533Z,3.17
2018-04-27T16:16:33.140Z,2.83
2018-04-27T16:19:01.590Z,3.00
2018-04-27T16:21:28.283Z,3.10
2018-04-27T16:23:55.436Z,3.47
2018-04-27T16:26:25.977Z,3.10
2018-04-27T16:28:52.605Z,2.90
2018-04-27T16:31:19.311Z,3.10
2018-04-27T16:33:46.030Z,3.23
2018-04-27T16:36:12.673Z,3.17
2018-04-27T16:38:39.296Z,3.27
2018-04-27T16:41:05.961Z,3.20
2018-04-27T16:43:32.571Z,3.10
2018-04-27T16:45:59.301Z,3.00
2018-04-27T16:48:26.007Z,3.27
2018-04-27T16:50:53.353Z,3.10
2018-04-27T16:53:20.712Z,2.93
2018-04-27T16:55:48.162Z,3.40
2018-04-27T16:58:15.600Z,3.40
2018-04-27T17:00:42.332Z,3.23
2018-04-27T17:03:09.047Z,3.03
2018-04-27T17:05:35.763Z,3.47
2018-04-27T17:08:02.499Z,4.70
2018-04-27T17:10:29.849Z,3.50
2018-04-27T17:12:56.462Z,3.70
2018-04-27T17:15:23.103Z,3.60
2018-04-27T17:17:49.805Z,3.50
2018-04-27T17:20:16.401Z,3.73
2018-04-27T17:22:43.150Z,3.70
2018-04-27T17:25:10.523Z,3.43
2018-04-27T17:27:37.138Z,15.20
2018-04-27T17:30:03.756Z,10.00
2018-04-27T17:32:30.413Z,7.00
2018-04-27T17:34:57.068Z,9.53
2018-04-27T17:37:23.790Z,9.37
2018-04-27T17:39:51.173Z,8.10
2018-04-27T17:42:18.789Z,28.10
2018-04-27T17:44:45.436Z,18.03
2018-04-27T17:47:12.642Z,8.83
2018-04-27T17:49:39.326Z,36.63
2018-04-27T17:52:05.893Z,28.17
2018-04-27T17:54:32.442Z,8.13
2018-04-27T17:56:59.047Z,5.40
2018-04-27T17:59:25.685Z,3.90
2018-04-27T18:01:52.268Z,4.00
2018-04-27T18:04:18.874Z,4.20
2018-04-27T18:06:45.582Z,5.33
2018-04-27T18:09:12.120Z,6.27
2018-04-27T18:11:38.738Z,6.30
2018-04-27T18:14:05.365Z,7.07
2018-04-27T18:16:31.945Z,5.90
2018-04-27T18:18:59.316Z,6.23
2018-04-27T18:21:26.536Z,7.43
2018-04-27T18:23:53.183Z,6.70
2018-04-27T18:26:20.515Z,6.20
2018-04-27T18:28:47.171Z,6.40
2018-04-27T18:31:13.750Z,7.53
2018-04-27T18:33:40.341Z,7.63
2018-04-27T18:36:07.077Z,5.97
2018-04-27T18:38:33.718Z,5.33
2018-04-27T18:41:00.313Z,5.80
2018-04-27T18:43:26.973Z,5.30
2018-04-27T18:45:53.684Z,5.80
2018-04-27T18:48:20.497Z,5.23
2018-04-27T18:50:48.292Z,5.17
2018-04-27T18:53:15.031Z,5.33
2018-04-27T18:55:41.678Z,5.03
2018-04-27T18:58:08.351Z,6.87
2018-04-27T19:00:36.795Z,18.53
2018-04-27T19:03:03.495Z,12.40
2018-04-27T19:05:31.057Z,7.87
2018-04-27T19:07:58.464Z,6.07
2018-04-27T19:10:29.636Z,8.33
2018-04-27T19:12:56.335Z,8.50
2018-04-27T19:15:23.019Z,6.23
2018-04-27T19:18:01.674Z,4.83
2018-04-27T19:20:28.535Z,5.03
2018-04-27T19:23:13.711Z,5.17
2018-04-27T19:25:40.323Z,6.60
2018-04-27T19:28:06.954Z,7.73
2018-04-27T19:30:34.367Z,8.83
2018-04-27T19:33:01.060Z,7.27
2018-04-27T19:35:27.698Z,7.03
2018-04-27T19:37:54.380Z,5.27
2018-04-27T19:40:21.026Z,5.80
2018-04-27T19:42:47.662Z,5.77
2018-04-27T19:45:14.328Z,5.50
2018-04-27T19:47:41.011Z,5.70
2018-04-27T19:50:08.408Z,5.70
2018-04-27T19:52:35.069Z,6.93
2018-04-27T19:55:01.869Z,7.13
2018-04-27T19:57:28.545Z,6.63
2018-04-27T19:59:55.240Z,6.07
2018-04-27T20:02:21.936Z,6.43
2018-04-27T20:04:49.377Z,6.27
2018-04-27T20:07:15.958Z,5.90
2018-04-27T20:09:42.703Z,5.70
2018-04-27T20:12:09.287Z,5.60
2018-04-27T20:14:36.024Z,5.63
2018-04-27T20:17:03.591Z,5.50
2018-04-27T20:19:30.187Z,5.80
2018-04-27T20:21:56.842Z,6.20
2018-04-27T20:24:23.484Z,5.83
2018-04-27T20:26:50.150Z,6.07
2018-04-27T20:29:16.813Z,5.57
2018-04-27T20:31:43.465Z,5.40
2018-04-27T20:34:10.175Z,6.07
2018-04-27T20:36:37.580Z,6.00
2018-04-27T20:39:04.252Z,5.77
2018-04-27T20:41:30.975Z,6.07
2018-04-27T20:43:57.625Z,6.03
2018-04-27T20:46:24.263Z,5.70
2018-04-27T20:48:50.926Z,6.00
2018-04-27T20:51:19.613Z,5.83
2018-04-27T20:53:56.179Z,6.80
2018-04-27T20:56:25.714Z,5.97
2018-04-27T20:58:52.427Z,6.50
2018-04-27T21:01:19.110Z,6.23
2018-04-27T21:03:45.787Z,6.53
2018-04-27T21:06:12.489Z,6.90
2018-04-27T21:08:39.127Z,6.40
2018-04-27T21:11:05.810Z,6.60
2018-04-27T21:13:32.778Z,6.03
2018-04-27T21:15:59.416Z,6.70
2018-04-27T21:18:26.061Z,6.53
2018-04-27T21:20:52.729Z,6.20
2018-04-27T21:23:19.361Z,5.97
2018-04-27T21:25:49.783Z,5.87
2018-04-27T21:28:16.476Z,6.97
2018-04-27T21:30:45.850Z,6.53
2018-04-27T21:33:12.471Z,6.00
2018-04-27T21:38:52.731Z,6.43
2018-04-27T21:41:21.207Z,6.63
2018-04-27T21:43:47.836Z,6.57
2018-04-27T21:46:24.433Z,6.27
2018-04-27T21:48:51.112Z,6.30
2018-04-27T21:51:23.656Z,6.60
2018-04-27T21:53:50.301Z,7.03
2018-04-27T21:56:16.880Z,7.33
2018-04-27T21:58:43.568Z,7.63
2018-04-27T22:01:10.193Z,7.77
2018-04-27T22:03:36.804Z,7.20
2018-04-27T22:06:06.373Z,7.43
2018-04-27T22:08:38.038Z,7.20
2018-04-27T22:11:17.527Z,6.97
2018-04-27T22:13:44.870Z,7.20
2018-04-27T22:16:32.956Z,7.63
2018-04-27T22:18:59.625Z,7.07
2018-04-27T22:21:26.244Z,8.30
2018-04-27T22:23:58.940Z,8.33
2018-04-27T22:26:25.601Z,7.67
2018-04-27T22:28:52.194Z,7.73
2018-04-27T22:31:23.539Z,7.63
2018-04-27T22:33:53.241Z,7.97
2018-04-27T22:39:32.325Z,7.00
2018-04-27T22:42:01.903Z,7.70
2018-04-27T22:44:40.352Z,7.53
2018-04-27T22:47:06.971Z,7.63
2018-04-27T22:49:33.601Z,7.00
2018-04-27T22:52:00.238Z,6.77
2018-04-27T22:54:30.658Z,7.30
2018-04-27T22:56:57.322Z,7.30
2018-04-27T22:59:27.826Z,7.27
2018-04-27T23:01:54.460Z,7.07
2018-04-27T23:04:21.139Z,8.07
2018-04-27T23:06:47.851Z,7.73
2018-04-27T23:09:14.485Z,7.70
2018-04-27T23:11:41.133Z,7.93
2018-04-27T23:14:10.680Z,7.50
2018-04-27T23:16:37.360Z,7.97
2018-04-27T23:19:07.762Z,8.00
2018-04-27T23:21:37.083Z,7.87
2018-04-27T23:24:05.690Z,6.70
2018-04-27T23:26:32.325Z,7.33
2018-04-27T23:28:58.943Z,7.80
2018-04-27T23:31:25.568Z,7.00
2018-04-27T23:33:52.910Z,7.83
2018-04-27T23:36:20.300Z,8.23
2018-04-27T23:38:46.943Z,7.60
2018-04-27T23:41:13.568Z,8.33
2018-04-27T23:43:40.203Z,7.40
2018-04-27T23:46:08.723Z,7.93
2018-04-27T23:48:35.369Z,7.30
2018-04-27T23:51:02.028Z,6.87
2018-04-27T23:53:32.604Z,7.30
2018-04-27T23:55:59.263Z,8.00
2018-04-27T23:58:25.958Z,7.23
